createdAt,value
2018-12-13T00:00:12.091Z,26.90
2018-12-13T00:05:14.623Z,27.62
2018-12-13T00:10:17.229Z,26.52
2018-12-13T00:15:21.868Z,28.33
2018-12-13T00:20:24.368Z,29.20
2018-12-13T00:25:26.958Z,31.07
2018-12-13T00:30:29.438Z,27.30
2018-12-13T00:35:32.397Z,28.38
2018-12-13T00:40:34.941Z,28.05
2018-12-13T00:45:37.751Z,24.73
2018-12-13T00:50:40.200Z,21.47
2018-12-13T00:55:43.291Z,23.20
2018-12-13T01:00:45.934Z,25.82
2018-12-13T01:05:48.433Z,25.70
2018-12-13T01:10:51.550Z,24.95
2018-12-13T01:15:54.257Z,27.37
2018-12-13T01:20:56.874Z,29.37
2018-12-13T01:25:59.438Z,27.82
2018-12-13T01:31:01.918Z,28.10
2018-12-13T01:36:04.411Z,25.48
2018-12-13T01:41:07.008Z,28.02
2018-12-13T01:46:09.494Z,30.77
2018-12-13T01:51:12.100Z,27.90
2018-12-13T01:56:14.589Z,30.03
2018-12-13T02:01:17.050Z,28.15
2018-12-13T02:06:19.574Z,33.23
2018-12-13T02:11:22.047Z,30.70
2018-12-13T02:16:24.829Z,26.70
2018-12-13T02:21:27.323Z,27.33
2018-12-13T02:26:29.830Z,28.27
2018-12-13T02:31:40.259Z,31.00
2018-12-13T02:36:42.782Z,24.63
2018-12-13T02:41:45.331Z,25.52
2018-12-13T02:46:47.802Z,25.10
2018-12-13T02:51:50.276Z,23.70
2018-12-13T02:56:52.910Z,23.27
2018-12-13T03:01:55.504Z,25.35
2018-12-13T03:06:57.995Z,25.43
2018-12-13T03:12:00.490Z,29.90
2018-12-13T03:17:03.286Z,31.40
2018-12-13T03:22:06.395Z,33.28
2018-12-13T03:27:08.882Z,33.92
2018-12-13T03:32:11.433Z,33.80
2018-12-13T03:37:20.390Z,35.77
2018-12-13T03:42:18.938Z,35.78
2018-12-13T03:47:21.780Z,32.77
2018-12-13T03:52:24.326Z,32.80
2018-12-13T03:57:26.826Z,30.85
2018-12-13T04:02:30.206Z,26.30
2018-12-13T04:07:32.927Z,27.37
2018-12-13T04:12:35.421Z,25.43
2018-12-13T04:17:38.034Z,22.90
2018-12-13T04:22:40.616Z,22.23
2018-12-13T04:27:43.108Z,20.92
2018-12-13T04:32:45.694Z,20.90
2018-12-13T04:37:48.170Z,18.32
2018-12-13T04:42:50.683Z,18.00
2018-12-13T04:47:53.181Z,9.40
2018-12-13T04:52:55.672Z,17.17
2018-12-13T04:57:58.168Z,9.50
2018-12-13T05:03:00.770Z,17.37
2018-12-13T05:08:03.251Z,15.93
2018-12-13T05:13:05.755Z,16.60
2018-12-13T05:18:08.403Z,16.48
2018-12-13T05:23:10.945Z,17.37
2018-12-13T05:28:13.738Z,17.40
2018-12-13T05:33:16.194Z,16.25
2018-12-13T05:38:19.165Z,15.53
2018-12-13T05:43:22.033Z,18.27
2018-12-13T05:48:24.493Z,16.63
2018-12-13T05:53:27.017Z,16.62
2018-12-13T05:58:29.526Z,17.80
2018-12-13T06:03:32.021Z,18.80
2018-12-13T06:08:34.598Z,18.42
2018-12-13T06:13:37.112Z,18.42
2018-12-13T06:18:39.700Z,19.03
2018-12-13T06:23:42.190Z,18.07
2018-12-13T06:28:44.673Z,17.92
2018-12-13T06:33:47.280Z,18.37
2018-12-13T06:38:49.866Z,19.73
2018-12-13T06:43:52.435Z,20.23
2018-12-13T06:48:55.381Z,21.70
2018-12-13T06:53:58.586Z,22.02
2018-12-13T06:59:01.083Z,19.90
2018-12-13T07:04:03.580Z,23.30
2018-12-13T07:09:06.211Z,22.60
2018-12-13T07:14:08.704Z,22.27
2018-12-13T07:19:11.174Z,24.80
2018-12-13T07:24:13.741Z,24.20
2018-12-13T07:29:16.238Z,23.90
2018-12-13T07:34:18.734Z,24.18
2018-12-13T07:39:21.210Z,24.23
2018-12-13T07:44:23.934Z,25.37
2018-12-13T07:49:27.165Z,23.90
2018-12-13T07:54:29.644Z,23.95
2018-12-13T07:59:32.375Z,22.30
2018-12-13T08:04:34.834Z,22.87
2018-12-13T08:09:37.306Z,23.57
2018-12-13T08:14:39.898Z,23.00
2018-12-13T08:19:42.434Z,23.53
2018-12-13T08:24:44.987Z,24.00
2018-12-13T08:29:47.786Z,21.12
2018-12-13T08:34:50.282Z,18.70
2018-12-13T08:39:52.873Z,17.92
2018-12-13T08:44:55.422Z,18.80
2018-12-13T08:49:57.966Z,18.33
2018-12-13T08:55:00.457Z,19.23
2018-12-13T09:00:03.665Z,20.45
2018-12-13T09:05:06.469Z,18.20
2018-12-13T09:10:10.378Z,19.37
2018-12-13T09:15:13.089Z,17.80
2018-12-13T09:20:15.586Z,17.10
2018-12-13T09:25:18.091Z,18.77
2018-12-13T09:30:20.662Z,19.30
2018-12-13T09:35:23.378Z,20.92
2018-12-13T09:40:25.849Z,19.00
2018-12-13T09:45:28.878Z,19.67
2018-12-13T09:50:32.082Z,20.32
2018-12-13T09:55:34.586Z,19.63
2018-12-13T10:00:37.384Z,17.07
2018-12-13T10:05:39.873Z,15.20
2018-12-13T10:10:42.378Z,12.30
2018-12-13T10:15:44.949Z,17.32
2018-12-13T10:20:47.458Z,15.95
2018-12-13T10:25:49.947Z,15.50
2018-12-13T10:30:52.443Z,13.72
2018-12-13T10:35:54.979Z,16.00
2018-12-13T10:40:57.467Z,15.10
2018-12-13T10:45:59.942Z,12.23
2018-12-13T10:51:02.507Z,15.40
2018-12-13T10:56:04.994Z,13.93
2018-12-13T11:01:13.134Z,14.10
2018-12-13T11:06:15.725Z,11.60
2018-12-13T11:11:18.213Z,13.58
2018-12-13T11:16:20.701Z,11.83
2018-12-13T11:21:23.198Z,11.08
2018-12-13T11:26:25.672Z,12.77
2018-12-13T11:31:28.490Z,10.30
2018-12-13T11:36:30.994Z,13.85
2018-12-13T11:41:33.518Z,13.62
2018-12-13T11:46:36.009Z,11.00
2018-12-13T11:51:38.570Z,13.10
2018-12-13T11:56:41.169Z,11.70
2018-12-13T12:01:44.677Z,10.53
2018-12-13T12:06:47.197Z,10.23
2018-12-13T12:11:50.027Z,9.95
2018-12-13T12:16:52.478Z,9.65
2018-12-13T12:21:55.037Z,8.20
2018-12-13T12:26:57.550Z,6.62
2018-12-13T12:32:00.045Z,10.00
2018-12-13T12:37:02.581Z,10.00
2018-12-13T12:42:05.142Z,8.60
2018-12-13T12:47:07.596Z,6.58
2018-12-13T12:52:10.233Z,8.00
2018-12-13T12:57:13.396Z,7.78
2018-12-13T13:02:16.027Z,5.72
2018-12-13T13:07:18.529Z,9.25
2018-12-13T13:12:21.012Z,8.63
2018-12-13T13:17:23.564Z,8.58
2018-12-13T13:22:26.102Z,5.87
2018-12-13T13:27:28.902Z,8.90
2018-12-13T13:32:31.393Z,9.55
2018-12-13T13:37:33.890Z,8.40
2018-12-13T13:42:36.342Z,6.47
2018-12-13T13:47:38.874Z,8.13
2018-12-13T13:52:41.370Z,8.37
2018-12-13T13:57:43.859Z,7.75
2018-12-13T14:02:46.354Z,8.57
2018-12-13T14:07:48.851Z,8.23
2018-12-13T14:12:51.394Z,7.73
2018-12-13T14:17:53.830Z,7.58
2018-12-13T14:22:56.550Z,9.93
2018-12-13T14:27:59.126Z,8.48
2018-12-13T14:33:01.674Z,8.45
2018-12-13T14:38:04.187Z,7.70
2018-12-13T14:43:07.322Z,8.38
2018-12-13T14:48:09.847Z,7.20
2018-12-13T14:53:12.429Z,8.47
2018-12-13T14:58:14.926Z,8.78
2018-12-13T15:03:17.397Z,8.83
2018-12-13T15:08:19.891Z,8.95
2018-12-13T15:13:22.378Z,9.40
2018-12-13T15:18:24.842Z,8.85
2018-12-13T15:23:27.394Z,9.10
2018-12-13T15:28:29.870Z,9.13
2018-12-13T15:33:32.328Z,8.83
2018-12-13T15:38:34.802Z,7.78
2018-12-13T15:43:37.307Z,7.63
2018-12-13T15:48:39.830Z,7.67
2018-12-13T15:53:42.333Z,7.50
2018-12-13T15:58:45.385Z,7.37
2018-12-13T16:03:47.938Z,7.75
2018-12-13T16:08:50.649Z,7.55
2018-12-13T16:13:53.260Z,7.60
2018-12-13T16:18:55.841Z,6.87
2018-12-13T16:23:58.394Z,6.85
2018-12-13T16:29:00.986Z,5.78
2018-12-13T16:34:03.600Z,6.67
2018-12-13T16:39:07.839Z,6.50
2018-12-13T16:44:10.437Z,5.58
2018-12-13T16:49:13.650Z,6.17
2018-12-13T16:54:16.701Z,5.65
2018-12-13T16:59:19.237Z,6.72
2018-12-13T17:04:21.738Z,5.67
2018-12-13T17:09:24.944Z,5.95
2018-12-13T17:14:27.451Z,6.00
2018-12-13T17:19:29.892Z,5.58
2018-12-13T17:24:32.405Z,5.80
2018-12-13T17:29:34.899Z,6.03
2018-12-13T17:34:37.411Z,5.85
2018-12-13T17:39:39.902Z,5.30
2018-12-13T17:44:42.479Z,6.08
2018-12-13T17:49:44.985Z,5.95
2018-12-13T17:54:47.593Z,5.97
2018-12-13T17:59:50.062Z,5.90
2018-12-13T18:04:52.560Z,4.20
2018-12-13T18:09:55.077Z,5.15
2018-12-13T18:14:57.705Z,5.50
2018-12-13T18:20:00.175Z,5.20
2018-12-13T18:25:02.757Z,5.30
2018-12-13T18:30:07.098Z,5.47
2018-12-13T18:35:09.688Z,5.20
2018-12-13T18:40:12.275Z,4.90
2018-12-13T18:45:14.770Z,4.33
2018-12-13T18:50:18.077Z,4.70
2018-12-13T18:55:20.584Z,5.70
2018-12-13T19:00:23.071Z,5.80
2018-12-13T19:05:25.661Z,5.10
2018-12-13T19:10:28.166Z,6.27
2018-12-13T19:15:30.605Z,5.12
2018-12-13T19:20:33.150Z,6.30
2018-12-13T19:25:35.734Z,6.08
2018-12-13T19:30:38.334Z,6.53
2018-12-13T19:35:40.833Z,6.53
2018-12-13T19:40:48.300Z,7.08
2018-12-13T19:45:47.973Z,7.87
2018-12-13T19:50:50.826Z,7.45
2018-12-13T19:55:53.358Z,7.40
2018-12-13T20:00:55.863Z,8.10
2018-12-13T20:05:58.510Z,8.03
2018-12-13T20:11:01.039Z,6.50
2018-12-13T20:16:03.607Z,7.67
2018-12-13T20:21:06.061Z,8.28
2018-12-13T20:26:08.728Z,7.92
2018-12-13T20:31:11.330Z,7.90
2018-12-13T20:36:13.825Z,8.60
2018-12-13T20:41:16.719Z,10.38
2018-12-13T20:46:19.270Z,9.43
2018-12-13T20:51:21.818Z,9.50
2018-12-13T20:56:24.308Z,9.43
2018-12-13T21:01:26.795Z,9.80
2018-12-13T21:06:29.342Z,11.25
2018-12-13T21:11:31.998Z,11.25
2018-12-13T21:16:34.478Z,11.50
2018-12-13T21:21:37.843Z,12.63
2018-12-13T21:26:40.381Z,12.47
2018-12-13T21:31:43.086Z,12.40
2018-12-13T21:36:46.088Z,12.63
2018-12-13T21:41:48.602Z,13.40
2018-12-13T21:46:51.127Z,13.43
2018-12-13T21:51:53.670Z,12.65
2018-12-13T21:56:56.676Z,12.95
2018-12-13T22:01:59.181Z,11.70
2018-12-13T22:07:01.758Z,12.53
2018-12-13T22:12:04.309Z,14.40
2018-12-13T22:17:06.846Z,14.30
2018-12-13T22:22:09.551Z,13.45
2018-12-13T22:27:12.152Z,13.22
2018-12-13T22:32:14.629Z,14.03
2018-12-13T22:37:17.081Z,14.53
2018-12-13T22:42:19.629Z,14.47
2018-12-13T22:47:22.114Z,13.15
2018-12-13T22:52:24.617Z,13.00
2018-12-13T22:57:27.205Z,13.30
2018-12-13T23:02:29.803Z,12.45
2018-12-13T23:07:32.498Z,12.70
2018-12-13T23:12:34.989Z,13.10
2018-12-13T23:17:37.582Z,12.60
2018-12-13T23:22:40.190Z,10.65
2018-12-13T23:27:42.675Z,13.13
2018-12-13T23:32:45.170Z,13.05
2018-12-13T23:37:48.069Z,11.88
2018-12-13T23:42:50.555Z,12.00
2018-12-13T23:47:53.158Z,13.60
2018-12-13T23:52:55.810Z,13.28
2018-12-13T23:57:58.354Z,13.50
